^^
B2 Weather Station Historical Data
Daily Summary for December 26, 2018 Units:  English    Metric   Both
Daily Weekly Monthly Yearly Custom
  High: Low: Average:
Temperature: 47.5 °F 25.2 °F 36.3 °F
Dew Point: 37.6 °F 22.5 °F 30.8 °F
Humidity: 92% 58% 81%
Wind Speed: 12.7mph 0mph 2.9mph
Wind Gust: 8mph - -
Wind- - South
Pressure: 30.49 in 30.22 in -
Precipitation: 0 in    
Historical Graphs
 
 
Tabular Data for December 26, 2018
Time Temperature Dew Point Pressure Wind Wind Speed Wind Gust Humidity Rainfall Rate (Hourly) solar
00:04 29.4 °F 26.6 °F 30.40 in Calm     89% 0 in 0.00 W/m2
00:09 29.3 °F 26.5 °F 30.40 in Calm     89% 0 in 0.00 W/m2
00:14 29.3 °F 26.5 °F 30.40 in Calm     89% 0 in 0.00 W/m2
00:19 29.4 °F 26.6 °F 30.40 in Calm     89% 0 in 0.00 W/m2
00:24 29.4 °F 26.6 °F 30.40 in Calm     89% 0 in 0.00 W/m2
00:29 29.3 °F 26.5 °F 30.41 in Calm     89% 0 in 0.00 W/m2
00:34 29.4 °F 26.6 °F 30.40 in Calm     89% 0 in 0.00 W/m2
00:39 29.5 °F 26.7 °F 30.41 in Calm     89% 0 in 0.00 W/m2
00:44 29.6 °F 26.8 °F 30.41 in Calm     89% 0 in 0.00 W/m2
00:49 29.7 °F 26.9 °F 30.41 in Calm     89% 0 in 0.00 W/m2
00:54 29.4 °F 26.3 °F 30.41 in Calm     88% 0 in 0.00 W/m2
00:59 29.3 °F 26.2 °F 30.41 in Calm     88% 0 in 0.00 W/m2
01:04 29.3 °F 26.5 °F 30.41 in Calm     89% 0 in 0.00 W/m2
01:09 29.4 °F 26.6 °F 30.41 in Calm     89% 0 in 0.00 W/m2
01:14 29.4 °F 26.6 °F 30.41 in Calm     89% 0 in 0.00 W/m2
01:19 29.2 °F 26.4 °F 30.41 in Calm     89% 0 in 0.00 W/m2
01:24 29.1 °F 26.3 °F 30.41 in Calm     89% 0 in 0.00 W/m2
01:29 29 °F 26.2 °F 30.42 in Calm     89% 0 in 0.00 W/m2
01:34 28.9 °F 26.1 °F 30.42 in Calm     89% 0 in 0.00 W/m2
01:39 28.3 °F 25.2 °F 30.42 in South 2.3 mph 0.1 mph 88% 0 in 0.00 W/m2
01:44 27.8 °F 24.7 °F 30.42 in South 2.3 mph 0.1 mph 88% 0 in 0.00 W/m2
01:49 27.7 °F 24.9 °F 30.43 in South 2.3 mph 0.7 mph 89% 0 in 0.00 W/m2
01:54 27.7 °F 25.2 °F 30.43 in South 2.3 mph 0.5 mph 90% 0 in 0.00 W/m2
01:59 27.7 °F 25.2 °F 30.43 in Calm     90% 0 in 0.00 W/m2
02:04 27.5 °F 25 °F 30.43 in Calm     90% 0 in 0.00 W/m2
02:09 27.4 °F 24.9 °F 30.44 in Calm     90% 0 in 0.00 W/m2
02:14 27.5 °F 25.2 °F 30.44 in Calm     91% 0 in 0.00 W/m2
02:19 27.5 °F 25.2 °F 30.44 in Calm     91% 0 in 0.00 W/m2
02:24 27.6 °F 25.3 °F 30.44 in Calm     91% 0 in 0.00 W/m2
02:29 27.6 °F 25.3 °F 30.44 in Calm     91% 0 in 0.00 W/m2
02:34 27.4 °F 25.1 °F 30.44 in Calm     91% 0 in 0.00 W/m2
02:39 27.4 °F 25.1 °F 30.44 in Calm     91% 0 in 0.00 W/m2
02:44 27.4 °F 25.1 °F 30.44 in Calm     91% 0 in 0.00 W/m2
02:49 27.4 °F 25.1 °F 30.44 in Calm     91% 0 in 0.00 W/m2
02:54 27.4 °F 25.1 °F 30.44 in Calm     91% 0 in 0.00 W/m2
02:59 27.4 °F 25.1 °F 30.44 in Calm     91% 0 in 0.00 W/m2
03:04 27.5 °F 25.2 °F 30.44 in Calm     91% 0 in 0.00 W/m2
03:09 27.5 °F 25.2 °F 30.44 in Calm     91% 0 in 0.00 W/m2
03:14 27.4 °F 25.1 °F 30.44 in Calm     91% 0 in 0.00 W/m2
03:19 27.1 °F 24.6 °F 30.44 in Calm     90% 0 in 0.00 W/m2
03:24 27 °F 24.7 °F 30.44 in Calm     91% 0 in 0.00 W/m2
03:29 27.1 °F 24.6 °F 30.44 in Calm     90% 0 in 0.00 W/m2
03:34 27 °F 24.7 °F 30.44 in Calm     91% 0 in 0.00 W/m2
03:39 27.1 °F 24.8 °F 30.43 in Calm     91% 0 in 0.00 W/m2
03:44 27.2 °F 24.9 °F 30.43 in Calm     91% 0 in 0.00 W/m2
03:49 27.2 °F 24.9 °F 30.43 in Calm     91% 0 in 0.00 W/m2
03:54 27.4 °F 25.1 °F 30.43 in Calm     91% 0 in 0.00 W/m2
03:59 27.2 °F 24.7 °F 30.44 in Calm     90% 0 in 0.00 W/m2
04:04 27.3 °F 25 °F 30.44 in Calm     91% 0 in 0.00 W/m2
04:09 27.4 °F 24.9 °F 30.44 in Calm     90% 0 in 0.00 W/m2
04:14 27.3 °F 24.8 °F 30.44 in Calm     90% 0 in 0.00 W/m2
04:19 27.2 °F 24.9 °F 30.44 in Calm     91% 0 in 0.00 W/m2
04:24 27.2 °F 24.9 °F 30.44 in Calm     91% 0 in 0.00 W/m2
04:29 27 °F 24.7 °F 30.45 in Calm     91% 0 in 0.00 W/m2
04:34 26.8 °F 24.3 °F 30.44 in Calm     90% 0 in 0.00 W/m2
04:39 26.8 °F 24.5 °F 30.45 in Calm     91% 0 in 0.00 W/m2
04:44 26.7 °F 24.4 °F 30.45 in Calm     91% 0 in 0.00 W/m2
04:49 26.7 °F 24.4 °F 30.45 in Calm     91% 0 in 0.00 W/m2
04:54 26.7 °F 24.4 °F 30.45 in Calm     91% 0 in 0.00 W/m2
04:59 26.6 °F 24.3 °F 30.45 in Calm     91% 0 in 0.00 W/m2
05:04 26.5 °F 24.2 °F 30.45 in Calm     91% 0 in 0.00 W/m2
05:09 26.6 °F 24.3 °F 30.45 in Calm     91% 0 in 0.00 W/m2
05:14 26.3 °F 23.8 °F 30.45 in Calm     90% 0 in 0.00 W/m2
05:19 26.2 °F 23.7 °F 30.45 in Calm     90% 0 in 0.00 W/m2
05:24 26.3 °F 24 °F 30.45 in Calm     91% 0 in 0.00 W/m2
05:29 26.5 °F 24.2 °F 30.45 in Calm     91% 0 in 0.00 W/m2
05:34 26.5 °F 24.2 °F 30.45 in Calm     91% 0 in 0.00 W/m2
05:39 26.5 °F 24 °F 30.45 in Calm     90% 0 in 0.00 W/m2
05:44 26.4 °F 23.9 °F 30.45 in Calm     90% 0 in 0.00 W/m2
05:49 26.5 °F 24 °F 30.45 in Calm     90% 0 in 0.00 W/m2
05:54 26.3 °F 23.8 °F 30.45 in Calm     90% 0 in 0.00 W/m2
05:59 25.7 °F 22.9 °F 30.44 in Calm     89% 0 in 0.00 W/m2
06:04 25.3 °F 22.5 °F 30.44 in Calm     89% 0 in 0.00 W/m2
06:09 25.3 °F 22.8 °F 30.45 in Calm     90% 0 in 0.00 W/m2
06:14 25.4 °F 22.9 °F 30.45 in Calm     90% 0 in 0.00 W/m2
06:19 25.4 °F 22.9 °F 30.45 in Calm     90% 0 in 0.00 W/m2
06:24 25.2 °F 22.7 °F 30.45 in Calm     90% 0 in 0.00 W/m2
06:29 25.2 °F 22.7 °F 30.45 in Calm     90% 0 in 0.00 W/m2
06:34 25.5 °F 23 °F 30.46 in Calm     90% 0 in 0.00 W/m2
06:39 25.6 °F 23.1 °F 30.46 in Calm     90% 0 in 0.00 W/m2
06:44 25.6 °F 23.1 °F 30.46 in Calm     90% 0 in 0.00 W/m2
06:49 25.6 °F 23.1 °F 30.46 in Calm     90% 0 in 0.00 W/m2
06:54 25.7 °F 23.2 °F 30.46 in Calm     90% 0 in 0.00 W/m2
06:59 25.7 °F 22.9 °F 30.46 in Calm     89% 0 in 0.00 W/m2
07:04 25.8 °F 23.3 °F 30.46 in Calm     90% 0 in 0.00 W/m2
07:09 25.7 °F 23.2 °F 30.46 in Calm     90% 0 in 0.00 W/m2
07:14 25.9 °F 23.4 °F 30.46 in Calm     90% 0 in 0.00 W/m2
07:19 25.9 °F 23.4 °F 30.46 in Calm     90% 0 in 7.00 W/m2
07:24 25.8 °F 23 °F 30.46 in Calm     89% 0 in 9.00 W/m2
07:29 25.8 °F 23.3 °F 30.46 in Calm     90% 0 in 12.00 W/m2
07:34 26.1 °F 23.6 °F 30.46 in Calm     90% 0 in 16.00 W/m2
07:39 26.6 °F 24.3 °F 30.47 in Calm     91% 0 in 19.00 W/m2
07:44 27.1 °F 24.8 °F 30.46 in Calm     91% 0 in 28.00 W/m2
07:49 27.9 °F 25.9 °F 30.46 in Calm     92% 0 in 40.00 W/m2
07:54 28.6 °F 26.3 °F 30.46 in Calm     91% 0 in 53.00 W/m2
07:59 29.2 °F 27.2 °F 30.47 in Calm     92% 0 in 63.00 W/m2
08:04 30.2 °F 28.2 °F 30.47 in Calm     92% 0 in 72.00 W/m2
08:09 30.9 °F 28.6 °F 30.47 in Calm     91% 0 in 86.00 W/m2
08:14 31.3 °F 29 °F 30.47 in Calm     91% 0 in 102.00 W/m2
08:19 31.5 °F 28.9 °F 30.47 in Calm     90% 0 in 125.00 W/m2
08:24 31.6 °F 29 °F 30.47 in Calm     90% 0 in 137.00 W/m2
08:29 31.7 °F 29.1 °F 30.48 in South 2.3 mph 0.3 mph 90% 0 in 155.00 W/m2
08:34 32 °F 29.4 °F 30.48 in South 1.2 mph   90% 0 in 142.00 W/m2
08:39 32.2 °F 29.6 °F 30.48 in Calm     90% 0 in 162.00 W/m2
08:44 32.6 °F 30.3 °F 30.48 in Calm     91% 0 in 141.00 W/m2
08:49 32.9 °F 30.3 °F 30.48 in SSE 3.5 mph 1.6 mph 90% 0 in 174.00 W/m2
08:54 33.2 °F 30.9 °F 30.48 in Calm     91% 0 in 169.00 W/m2
08:59 33.3 °F 30.7 °F 30.48 in Calm     90% 0 in 167.00 W/m2
09:04 33.5 °F 30.9 °F 30.48 in Calm     90% 0 in 174.00 W/m2
09:09 33.9 °F 31.6 °F 30.49 in Calm     91% 0 in 206.00 W/m2
09:14 34.3 °F 31.9 °F 30.49 in Calm     91% 0 in 237.00 W/m2
09:19 34.8 °F 32.4 °F 30.49 in Calm     91% 0 in 248.00 W/m2
09:24 35.3 °F 32.9 °F 30.49 in Calm     91% 0 in 236.00 W/m2
09:29 35.9 °F 33.5 °F 30.49 in Calm     91% 0 in 260.00 W/m2
09:34 36.2 °F 33.5 °F 30.49 in Calm     90% 0 in 299.00 W/m2
09:39 36.7 °F 34 °F 30.49 in Calm     90% 0 in 309.00 W/m2
09:44 37.3 °F 34.4 °F 30.48 in Calm     89% 0 in 269.00 W/m2
09:49 37.7 °F 34.8 °F 30.48 in Calm     89% 0 in 262.00 W/m2
09:54 38 °F 34.8 °F 30.48 in Calm     88% 0 in 313.00 W/m2
09:59 38.3 °F 34.8 °F 30.48 in Calm     87% 0 in 334.00 W/m2
10:04 38.8 °F 35.3 °F 30.48 in Calm     87% 0 in 334.00 W/m2
10:09 39 °F 35.2 °F 30.48 in Calm     86% 0 in 341.00 W/m2
10:14 39.5 °F 35.7 °F 30.48 in Calm     86% 0 in 343.00 W/m2
10:19 39.7 °F 35.6 °F 30.48 in Calm     85% 0 in 339.00 W/m2
10:24 39.9 °F 35.5 °F 30.48 in Calm     84% 0 in 315.00 W/m2
10:29 40.1 °F 35.7 °F 30.48 in SSE 1 mph 1.4 mph 84% 0 in 364.00 W/m2
10:34 40.5 °F 35.7 °F 30.47 in SE 3.5 mph 1.4 mph 83% 0 in 411.00 W/m2
10:39 40.9 °F 36.1 °F 30.47 in SSE 3.5 mph 2.7 mph 83% 0 in 410.00 W/m2
10:44 41.1 °F 36 °F 30.47 in SE 5 mph 2.8 mph 82% 0 in 410.00 W/m2
10:49 41.5 °F 36.1 °F 30.47 in ESE 3.5 mph 2.2 mph 81% 0 in 413.00 W/m2
10:54 41.8 °F 36.4 °F 30.46 in SE 3.5 mph 2.1 mph 81% 0 in 417.00 W/m2
10:59 42.3 °F 36.6 °F 30.46 in ESE 3.5 mph 2.4 mph 80% 0 in 408.00 W/m2
11:04 42.5 °F 36.8 °F 30.45 in ESE 4.6 mph 1.8 mph 80% 0 in 417.00 W/m2
11:09 42.9 °F 36.8 °F 30.45 in SE 3.5 mph 2.8 mph 79% 0 in 427.00 W/m2
11:14 43.2 °F 36.5 °F 30.45 in ESE 4 mph 3.4 mph 77% 0 in 438.00 W/m2
11:19 43.5 °F 36.8 °F 30.45 in SE 3.5 mph 2.6 mph 77% 0 in 410.00 W/m2
11:24 43.8 °F 36.7 °F 30.44 in SE 4.6 mph 0.8 mph 76% 0 in 413.00 W/m2
11:29 44.1 °F 36.7 °F 30.44 in SE 4 mph 4.2 mph 75% 0 in 448.00 W/m2
11:34 44.4 °F 37 °F 30.44 in SE 6.9 mph 4.3 mph 75% 0 in 448.00 W/m2
11:39 44.6 °F 36.8 °F 30.43 in North 5 mph 4.3 mph 74% 0 in 431.00 W/m2
11:44 44.9 °F 36.8 °F 30.43 in SSE 4 mph 1.6 mph 73% 0 in 415.00 W/m2
11:49 45 °F 36.9 °F 30.43 in North 6.9 mph 4.4 mph 73% 0 in 450.00 W/m2
11:54 45.2 °F 37.4 °F 30.43 in ESE 3.5 mph 2.9 mph 74% 0 in 436.00 W/m2
11:59 45.4 °F 36.9 °F 30.43 in SE 4.6 mph 3.5 mph 72% 0 in 441.00 W/m2
12:04 45.8 °F 36.9 °F 30.43 in SE 5.8 mph 3.9 mph 71% 0 in 417.00 W/m2
12:09 45.8 °F 36.9 °F 30.43 in ESE 4.6 mph 1.4 mph 71% 0 in 454.00 W/m2
12:14 46.1 °F 37.6 °F 30.42 in SE 3.5 mph 1.8 mph 72% 0 in 450.00 W/m2
12:19 46.3 °F 36.3 °F 30.42 in SE 6.9 mph 5.1 mph 68% 0 in 438.00 W/m2
12:24 46.3 °F 36.3 °F 30.41 in SE 8.1 mph 5.4 mph 68% 0 in 446.00 W/m2
12:29 46.4 °F 36 °F 30.41 in North 8.1 mph 3.7 mph 67% 0 in 415.00 W/m2
12:34 46.7 °F 36.7 °F 30.41 in SE 3.5 mph 3.1 mph 68% 0 in 425.00 W/m2
12:39 46.9 °F 36.5 °F 30.41 in SE 7 mph 5 mph 67% 0 in 417.00 W/m2
12:44 46.9 °F 36.1 °F 30.40 in North 6.9 mph 3.3 mph 66% 0 in 418.00 W/m2
12:49 47 °F 35.8 °F 30.40 in ESE 6.9 mph 3.8 mph 65% 0 in 429.00 W/m2
12:54 47.1 °F 35.5 °F 30.40 in SE 8.1 mph 4.8 mph 64% 0 in 427.00 W/m2
12:59 47.4 °F 35.8 °F 30.40 in SE 7 mph 5 mph 64% 0 in 422.00 W/m2
13:04 47.4 °F 35.4 °F 30.40 in SSE 7 mph 5.4 mph 63% 0 in 418.00 W/m2
13:09 47.5 °F 35.1 °F 30.40 in North 9.2 mph 5.4 mph 62% 0 in 399.00 W/m2
13:14 47.4 °F 34.6 °F 30.40 in North 9.2 mph 6.3 mph 61% 0 in 341.00 W/m2
13:19 47.3 °F 34.9 °F 30.39 in SE 11.5 mph 6.2 mph 62% 0 in 353.00 W/m2
13:24 47.3 °F 35.3 °F 30.39 in SE 8.1 mph 5.7 mph 63% 0 in 355.00 W/m2
13:29 47.4 °F 35.4 °F 30.39 in North 5.8 mph 5.1 mph 63% 0 in 290.00 W/m2
13:34 47.3 °F 34.9 °F 30.39 in SE 6.9 mph 5.2 mph 62% 0 in 281.00 W/m2
13:39 47.2 °F 35.2 °F 30.39 in North 8.1 mph 3.9 mph 63% 0 in 227.00 W/m2
13:44 46.8 °F 34 °F 30.39 in ESE 6.9 mph 3.8 mph 61% 0 in 146.00 W/m2
13:49 46.4 °F 34.1 °F 30.39 in North 3.5 mph 1.6 mph 62% 0 in 128.00 W/m2
13:54 46.2 °F 34.7 °F 30.39 in ESE 3.5 mph 1.5 mph 64% 0 in 142.00 W/m2
13:59 46 °F 32.5 °F 30.38 in SE 6.9 mph 2.9 mph 59% 0 in 146.00 W/m2
14:04 45.9 °F 32.4 °F 30.38 in SE 4.6 mph 2 mph 59% 0 in 144.00 W/m2
14:09 46 °F 34.1 °F 30.39 in SE 3.5 mph 1.8 mph 63% 0 in 113.00 W/m2
14:14 46 °F 32.9 °F 30.39 in SE 3.5 mph 0.2 mph 60% 0 in 104.00 W/m2
14:19 45.8 °F 31.9 °F 30.39 in SSE 3.5 mph 2.3 mph 58% 0 in 98.00 W/m2
14:24 45.7 °F 33 °F 30.39 in SE 4.6 mph 1.1 mph 61% 0 in 100.00 W/m2
14:29 45.6 °F 33.3 °F 30.39 in SSE 3.5 mph   62% 0 in 97.00 W/m2
14:34 45.6 °F 33.3 °F 30.39 in SE 3.5 mph 1.8 mph 62% 0 in 84.00 W/m2
14:39 45.4 °F 33.1 °F 30.39 in SSE 3.5 mph 2.5 mph 62% 0 in 84.00 W/m2
14:44 45.3 °F 33.4 °F 30.39 in North 4.6 mph 2.8 mph 63% 0 in 90.00 W/m2
14:49 45.2 °F 33.3 °F 30.39 in North 3.5 mph 2.8 mph 63% 0 in 86.00 W/m2
14:54 45.2 °F 33.7 °F 30.39 in SE 3.5 mph 2.2 mph 64% 0 in 69.00 W/m2
14:59 45 °F 34.3 °F 30.39 in North 4 mph 0.4 mph 66% 0 in 56.00 W/m2
15:04 44.7 °F 34 °F 30.39 in North 4.6 mph   66% 0 in 44.00 W/m2
15:09 44.5 °F 34.2 °F 30.39 in Calm     67% 0 in 39.00 W/m2
15:14 44.2 °F 33.6 °F 30.39 in SE 3.5 mph 1.4 mph 66% 0 in 37.00 W/m2
15:19 44.2 °F 33.2 °F 30.39 in ESE 3.5 mph 0.9 mph 65% 0 in 37.00 W/m2
15:24 44.1 °F 33.5 °F 30.39 in Calm     66% 0 in 32.00 W/m2
15:29 44 °F 34.1 °F 30.38 in Calm     68% 0 in 28.00 W/m2
15:34 43.6 °F 34.1 °F 30.38 in Calm     69% 0 in 26.00 W/m2
15:39 43.4 °F 33.9 °F 30.38 in North 3 mph 2.2 mph 69% 0 in 25.00 W/m2
15:44 43.2 °F 34.1 °F 30.38 in Calm     70% 0 in 19.00 W/m2
15:49 43 °F 33.9 °F 30.38 in East 4.6 mph 1.5 mph 70% 0 in 16.00 W/m2
15:54 42.9 °F 33.8 °F 30.37 in East 5 mph 2.4 mph 70% 0 in 12.00 W/m2
15:59 42.7 °F 33.9 °F 30.36 in ESE 4.6 mph 1.2 mph 71% 0 in 9.00 W/m2
16:04 42.5 °F 33.8 °F 30.36 in ESE 3.5 mph 0.8 mph 71% 0 in 5.00 W/m2
16:09 42.3 °F 33.6 °F 30.36 in North 3.5 mph 0.8 mph 71% 0 in 5.00 W/m2
16:14 42.2 °F 33.8 °F 30.35 in East 5.8 mph 2.7 mph 72% 0 in 0.00 W/m2
16:19 42.1 °F 33.7 °F 30.35 in ESE 3 mph 0.8 mph 72% 0 in 0.00 W/m2
16:24 42 °F 33.6 °F 30.35 in North 3.5 mph 0.3 mph 72% 0 in 0.00 W/m2
16:29 41.8 °F 33.8 °F 30.35 in ESE 3.5 mph 0.6 mph 73% 0 in 0.00 W/m2
16:34 41.6 °F 33.9 °F 30.35 in ESE 3.5 mph 0.4 mph 74% 0 in 0.00 W/m2
16:39 41.5 °F 33.8 °F 30.35 in ESE 2 mph 1.4 mph 74% 0 in 0.00 W/m2
16:44 41.5 °F 33.5 °F 30.35 in North 3.5 mph 0.9 mph 73% 0 in 0.00 W/m2
16:49 41.6 °F 33.6 °F 30.35 in East 3.5 mph 1.2 mph 73% 0 in 0.00 W/m2
16:54 41.5 °F 33.8 °F 30.35 in East 3.5 mph 0.9 mph 74% 0 in 0.00 W/m2
16:59 41.4 °F 33.7 °F 30.35 in ESE 3.5 mph 1.5 mph 74% 0 in 0.00 W/m2
17:04 41.4 °F 33.7 °F 30.35 in ESE 3.5 mph 1.5 mph 74% 0 in 0.00 W/m2
17:09 41.3 °F 33.6 °F 30.36 in ESE 3.5 mph 2.1 mph 74% 0 in 0.00 W/m2
17:14 41.2 °F 33.5 °F 30.36 in East 1.2 mph 0.3 mph 74% 0 in 0.00 W/m2
17:19 41.1 °F 33.8 °F 30.36 in ESE 4.6 mph 1.5 mph 75% 0 in 0.00 W/m2
17:24 41.1 °F 33.8 °F 30.36 in North 4.6 mph 0.6 mph 75% 0 in 0.00 W/m2
17:29 41 °F 33.7 °F 30.36 in ESE 4.6 mph 3.4 mph 75% 0 in 0.00 W/m2
17:34 41 °F 33.7 °F 30.35 in North 3.5 mph 1.6 mph 75% 0 in 0.00 W/m2
17:39 41 °F 33.7 °F 30.35 in East 4.6 mph 2 mph 75% 0 in 0.00 W/m2
17:44 40.7 °F 33.7 °F 30.34 in North 3.5 mph   76% 0 in 0.00 W/m2
17:49 40.5 °F 33.5 °F 30.34 in Calm   0.8 mph 76% 0 in 0.00 W/m2
17:54 40.5 °F 33.5 °F 30.34 in ESE 4.6 mph 3.6 mph 76% 0 in 0.00 W/m2
17:59 40.6 °F 33.6 °F 30.34 in East 4.6 mph 2.8 mph 76% 0 in 0.00 W/m2
18:04 40.6 °F 33.6 °F 30.34 in East 5.8 mph 1.8 mph 76% 0 in 0.00 W/m2
18:09 40.5 °F 33.5 °F 30.34 in ESE 6.9 mph 3.2 mph 76% 0 in 0.00 W/m2
18:14 40.4 °F 33.4 °F 30.34 in North 5.8 mph 2.5 mph 76% 0 in 0.00 W/m2
18:19 40.3 °F 33.3 °F 30.34 in North 4 mph 2.3 mph 76% 0 in 0.00 W/m2
18:24 40.2 °F 33.2 °F 30.34 in North 4.6 mph 2.3 mph 76% 0 in 0.00 W/m2
18:29 40.2 °F 33.2 °F 30.34 in ESE 4.6 mph 3.4 mph 76% 0 in 0.00 W/m2
18:34 40.2 °F 33.2 °F 30.34 in North 6 mph 1.6 mph 76% 0 in 0.00 W/m2
18:39 40.1 °F 33.5 °F 30.33 in ESE 3.5 mph 1.6 mph 77% 0 in 0.00 W/m2
18:44 40 °F 33.4 °F 30.34 in ESE 6.9 mph 3 mph 77% 0 in 0.00 W/m2
18:49 40.1 °F 33.5 °F 30.33 in ESE 8.1 mph 2.8 mph 77% 0 in 0.00 W/m2
18:54 40.1 °F 33.5 °F 30.33 in East 4.6 mph 2.5 mph 77% 0 in 0.00 W/m2
18:59 40 °F 33.4 °F 30.33 in East 4 mph 2.4 mph 77% 0 in 0.00 W/m2
19:04 39.9 °F 33.3 °F 30.33 in ESE 4.6 mph 2.2 mph 77% 0 in 0.00 W/m2
19:09 39.9 °F 33.3 °F 30.32 in ESE 6.9 mph 2.1 mph 77% 0 in 0.00 W/m2
19:14 39.8 °F 33.5 °F 30.32 in ESE 3.5 mph 2.2 mph 78% 0 in 0.00 W/m2
19:19 39.8 °F 33.5 °F 30.32 in ESE 5.8 mph 2.5 mph 78% 0 in 0.00 W/m2
19:24 39.8 °F 33.5 °F 30.32 in East 5.8 mph 2.6 mph 78% 0 in 0.00 W/m2
19:29 39.9 °F 33.6 °F 30.32 in East 5.8 mph 2.2 mph 78% 0 in 0.00 W/m2
19:34 39.8 °F 33.5 °F 30.32 in ESE 4.6 mph 2.8 mph 78% 0 in 0.00 W/m2
19:39 39.9 °F 33.6 °F 30.32 in North 6 mph 3.7 mph 78% 0 in 0.00 W/m2
19:44 39.8 °F 33.5 °F 30.31 in East 6.9 mph 3.3 mph 78% 0 in 0.00 W/m2
19:49 39.7 °F 33.4 °F 30.31 in ESE 6.9 mph 3.3 mph 78% 0 in 0.00 W/m2
19:54 39.6 °F 33.3 °F 30.31 in ESE 6.9 mph 3.2 mph 78% 0 in 0.00 W/m2
19:59 39.3 °F 33 °F 30.31 in ESE 6.9 mph 4.7 mph 78% 0 in 0.00 W/m2
20:04 39.1 °F 32.8 °F 30.31 in ESE 4.6 mph 2.4 mph 78% 0 in 0.00 W/m2
20:09 39 °F 33 °F 30.31 in SE 8.1 mph 3 mph 79% 0 in 0.00 W/m2
20:14 38.9 °F 32.9 °F 30.31 in SE 4.6 mph 2.9 mph 79% 0 in 0.00 W/m2
20:19 38.9 °F 32.9 °F 30.31 in ESE 5.8 mph 2.1 mph 79% 0 in 0.00 W/m2
20:24 38.9 °F 32.9 °F 30.31 in North 5.8 mph 3.2 mph 79% 0 in 0.00 W/m2
20:29 38.9 °F 32.9 °F 30.32 in ESE 7 mph 2.9 mph 79% 0 in 0.00 W/m2
20:34 38.9 °F 32.9 °F 30.32 in North 4.6 mph 2.8 mph 79% 0 in 0.00 W/m2
20:39 39 °F 33 °F 30.32 in SE 4 mph 1.7 mph 79% 0 in 0.00 W/m2
20:44 38.9 °F 32.9 °F 30.32 in ESE 4.6 mph 2.2 mph 79% 0 in 0.00 W/m2
20:49 38.8 °F 32.8 °F 30.32 in SE 3.5 mph 2.9 mph 79% 0 in 0.00 W/m2
20:54 38.8 °F 32.8 °F 30.32 in ESE 3.5 mph 1.6 mph 79% 0 in 0.00 W/m2
20:59 38.8 °F 33.2 °F 30.31 in ESE 5 mph 1.7 mph 80% 0 in 0.00 W/m2
21:04 38.7 °F 33.1 °F 30.31 in ESE 4.6 mph 1.9 mph 80% 0 in 0.00 W/m2
21:09 38.6 °F 33 °F 30.31 in ESE 4 mph 1.2 mph 80% 0 in 0.00 W/m2
21:14 38.4 °F 32.8 °F 30.31 in ESE 3.5 mph 2.6 mph 80% 0 in 0.00 W/m2
21:19 38.3 °F 32.7 °F 30.31 in East 5 mph 3.4 mph 80% 0 in 0.00 W/m2
21:24 38.2 °F 32.9 °F 30.30 in North 3.5 mph 2.7 mph 81% 0 in 0.00 W/m2
21:29 38.2 °F 32.9 °F 30.30 in ESE 3.5 mph 1.6 mph 81% 0 in 0.00 W/m2
21:34 38.2 °F 32.9 °F 30.30 in ESE 4.6 mph 0.3 mph 81% 0 in 0.00 W/m2
21:39 38.2 °F 32.9 °F 30.29 in ESE 5.8 mph 2 mph 81% 0 in 0.00 W/m2
21:44 38.2 °F 32.9 °F 30.30 in East 6.9 mph 3 mph 81% 0 in 0.00 W/m2
21:49 38.4 °F 33.1 °F 30.30 in ESE 6.9 mph 3.9 mph 81% 0 in 0.00 W/m2
21:54 38.4 °F 33.1 °F 30.30 in North 5 mph 2.7 mph 81% 0 in 0.00 W/m2
21:59 38.5 °F 33.2 °F 30.29 in ESE 4.6 mph 1.4 mph 81% 0 in 0.00 W/m2
22:04 38.4 °F 33.1 °F 30.29 in ESE 4.6 mph 1.1 mph 81% 0 in 0.00 W/m2
22:09 38.4 °F 33.4 °F 30.29 in ESE 4.6 mph 3.2 mph 82% 0 in 0.00 W/m2
22:14 38.4 °F 33.4 °F 30.29 in ESE 5 mph 1.7 mph 82% 0 in 0.00 W/m2
22:19 38.4 °F 33.4 °F 30.28 in ESE 5 mph 3.3 mph 82% 0 in 0.00 W/m2
22:24 38.5 °F 33.5 °F 30.28 in North 5.8 mph 3 mph 82% 0 in 0.00 W/m2
22:29 38.6 °F 33.6 °F 30.29 in SE 4.6 mph 5.2 mph 82% 0 in 0.00 W/m2
22:34 38.7 °F 33.4 °F 30.29 in ESE 6.9 mph 4.7 mph 81% 0 in 0.00 W/m2
22:39 38.8 °F 33.5 °F 30.29 in ESE 5.8 mph 4.1 mph 81% 0 in 0.00 W/m2
22:44 38.9 °F 33.6 °F 30.29 in ESE 9.2 mph 4.3 mph 81% 0 in 0.00 W/m2
22:49 38.9 °F 33.6 °F 30.28 in SE 9.2 mph 5.7 mph 81% 0 in 0.00 W/m2
22:54 38.9 °F 33.6 °F 30.28 in North 6.9 mph 2.6 mph 81% 0 in 0.00 W/m2
22:59 38.9 °F 33.6 °F 30.27 in ESE 6.9 mph 4.3 mph 81% 0 in 0.00 W/m2
23:04 38.9 °F 33.6 °F 30.26 in ESE 9.2 mph 4.8 mph 81% 0 in 0.00 W/m2
23:09 38.8 °F 33.5 °F 30.26 in ESE 5.8 mph 4 mph 81% 0 in 0.00 W/m2
23:14 38.8 °F 33.5 °F 30.25 in ESE 8.1 mph 4.2 mph 81% 0 in 0.00 W/m2
23:19 38.8 °F 33.5 °F 30.26 in ESE 8.1 mph 4.2 mph 81% 0 in 0.00 W/m2
23:24 38.8 °F 33.5 °F 30.25 in North 9.2 mph 6 mph 81% 0 in 0.00 W/m2
23:29 38.8 °F 33.5 °F 30.24 in ESE 6.9 mph 4.2 mph 81% 0 in 0.00 W/m2
23:34 38.8 °F 33.5 °F 30.23 in ESE 10.4 mph 5.6 mph 81% 0 in 0.00 W/m2
23:39 38.8 °F 33.5 °F 30.24 in North 9.2 mph 5.1 mph 81% 0 in 0.00 W/m2
23:44 38.8 °F 33.5 °F 30.24 in ESE 3.5 mph 3.6 mph 81% 0 in 0.00 W/m2
23:49 38.8 °F 33.8 °F 30.23 in East 12.7 mph 8 mph 82% 0 in 0.00 W/m2
23:54 38.8 °F 33.5 °F 30.23 in ESE 9.2 mph 7 mph 81% 0 in 0.00 W/m2
23:59 38.9 °F 33.6 °F 30.22 in East 9.2 mph 6.8 mph 81% 0 in 0.00 W/m2
Bourbonnais, Illinois, USA
Compliments of Weather Underground - 4 mb